Terminal Aerodrome Forecast
Issued by NWS Corpus Christi, TX

Home | Current Version | Previous Version | Text Only | Print | Product List | Glossary On
Versions: 1 2 3 4 5 6 7 8 9 10 11 12 13 14 15 16 17 18 19
000
FTUS44 KCRP 242334
TAFVCT
TAF
KVCT 242334Z 2500/2524 15013KT P6SM FEW018
     FM250600 15009KT P6SM BKN015
     FM251500 15016KT P6SM VCTS SCT018CB BKN028
      TEMPO 2516/2520 VRB20G30KT 3SM TS BR BKN024CB
     FM252000 15018G24KT P6SM VCTS SCT028CB BKN040
      TEMPO 2520/2524 VRB30G40KT 2SM +TSRA BKN024CB=

USA.gov is the U.S. government's official web portal to all federal, state and local government web resources and services.